createdAt,value
2018-09-25T00:01:06.838Z,99.90
2018-09-25T00:03:42.405Z,99.90
2018-09-25T00:06:18.093Z,99.90
2018-09-25T00:08:53.541Z,99.90
2018-09-25T00:11:29.614Z,99.90
2018-09-25T00:14:05.432Z,99.90
2018-09-25T00:16:40.914Z,99.90
2018-09-25T00:19:16.461Z,99.90
2018-09-25T00:21:51.949Z,99.90
2018-09-25T00:24:27.465Z,99.90
2018-09-25T00:27:02.966Z,99.90
2018-09-25T00:29:38.492Z,99.90
2018-09-25T00:32:14.083Z,99.90
2018-09-25T00:34:49.381Z,99.90
2018-09-25T00:37:25.081Z,99.90
2018-09-25T00:40:00.484Z,99.90
2018-09-25T00:42:35.970Z,99.90
2018-09-25T00:45:11.688Z,99.90
2018-09-25T00:47:47.139Z,99.90
2018-09-25T00:50:22.825Z,99.90
2018-09-25T00:52:58.336Z,99.90
2018-09-25T00:55:33.913Z,99.90
2018-09-25T00:58:09.610Z,99.90
2018-09-25T01:00:45.015Z,99.90
2018-09-25T01:03:20.654Z,99.90
2018-09-25T01:05:56.053Z,99.90
2018-09-25T01:08:31.428Z,99.90
2018-09-25T01:11:06.950Z,99.90
2018-09-25T01:13:42.451Z,99.90
2018-09-25T01:16:17.763Z,99.90
2018-09-25T01:18:53.430Z,99.90
2018-09-25T01:21:29.306Z,99.90
2018-09-25T01:24:04.834Z,99.90
2018-09-25T01:26:40.420Z,99.90
2018-09-25T01:29:15.927Z,99.90
2018-09-25T01:31:51.502Z,99.90
2018-09-25T01:34:26.886Z,99.90
2018-09-25T01:37:02.301Z,99.90
2018-09-25T01:39:38.077Z,99.90
2018-09-25T01:42:13.512Z,99.90
2018-09-25T01:44:49.112Z,99.90
2018-09-25T01:47:24.623Z,99.70
2018-09-25T01:50:00.090Z,99.80
2018-09-25T01:52:35.679Z,99.80
2018-09-25T01:55:11.184Z,99.80
2018-09-25T01:57:46.607Z,99.40
2018-09-25T02:00:22.719Z,99.40
2018-09-25T02:02:58.544Z,99.50
2018-09-25T02:05:34.142Z,99.60
2018-09-25T02:08:09.703Z,99.40
2018-09-25T02:10:45.237Z,99.30
2018-09-25T02:13:20.636Z,99.30
2018-09-25T02:15:56.106Z,99.30
2018-09-25T02:18:31.720Z,99.50
2018-09-25T02:21:07.792Z,99.10
2018-09-25T02:23:43.420Z,99.60
2018-09-25T02:26:19.296Z,99.20
2018-09-25T02:28:56.448Z,99.40
2018-09-25T02:31:33.321Z,99.30
2018-09-25T02:34:09.032Z,99.50
2018-09-25T02:36:44.501Z,98.80
2018-09-25T02:39:19.912Z,98.80
2018-09-25T02:41:55.561Z,99.00
2018-09-25T02:44:30.996Z,98.60
2018-09-25T02:47:06.533Z,98.80
2018-09-25T02:49:41.822Z,98.50
2018-09-25T02:52:18.167Z,98.70
2018-09-25T02:54:53.657Z,98.90
2018-09-25T02:57:29.104Z,98.50
2018-09-25T03:00:04.262Z,98.60
2018-09-25T03:02:39.635Z,98.40
2018-09-25T03:05:15.308Z,98.60
2018-09-25T03:07:51.822Z,97.90
2018-09-25T03:10:27.196Z,98.00
2018-09-25T03:13:02.811Z,98.10
2018-09-25T03:15:38.357Z,98.30
2018-09-25T03:18:13.967Z,97.80
2018-09-25T03:20:49.457Z,97.80
2018-09-25T03:23:24.990Z,97.70
2018-09-25T03:26:01.068Z,97.70
2018-09-25T03:28:36.436Z,97.50
2018-09-25T03:31:12.215Z,97.50
2018-09-25T03:33:47.762Z,97.70
2018-09-25T03:36:23.170Z,97.70
2018-09-25T03:38:58.778Z,97.00
2018-09-25T03:41:35.285Z,97.30
2018-09-25T03:44:10.945Z,96.80
2018-09-25T03:46:46.504Z,96.90
2018-09-25T03:49:22.058Z,96.40
2018-09-25T03:51:57.673Z,96.10
2018-09-25T03:54:33.297Z,96.10
2018-09-25T03:57:08.846Z,95.90
2018-09-25T03:59:44.690Z,95.50
2018-09-25T04:02:20.148Z,95.80
2018-09-25T04:04:55.773Z,95.70
2018-09-25T04:07:31.213Z,95.40
2018-09-25T04:10:06.844Z,95.10
2018-09-25T04:12:42.287Z,95.30
2018-09-25T04:15:17.642Z,95.20
2018-09-25T04:17:53.377Z,94.90
2018-09-25T04:20:28.738Z,94.80
2018-09-25T04:23:04.235Z,94.70
2018-09-25T04:25:39.733Z,94.40
2018-09-25T04:28:15.223Z,94.30
2018-09-25T04:30:50.665Z,94.50
2018-09-25T04:33:26.232Z,94.00
2018-09-25T04:36:01.739Z,94.70
2018-09-25T04:38:37.073Z,93.80
2018-09-25T04:41:12.801Z,93.20
2018-09-25T04:43:48.206Z,93.30
2018-09-25T04:46:23.578Z,93.00
2018-09-25T04:48:59.224Z,93.10
2018-09-25T04:51:34.741Z,93.20
2018-09-25T04:54:11.094Z,92.90
2018-09-25T04:56:46.463Z,93.10
2018-09-25T04:59:22.130Z,93.00
2018-09-25T05:01:57.919Z,93.30
2018-09-25T05:04:33.449Z,93.00
2018-09-25T05:07:09.450Z,92.70
2018-09-25T05:09:45.126Z,92.80
2018-09-25T05:12:20.692Z,92.90
2018-09-25T05:14:56.638Z,92.80
2018-09-25T05:17:32.173Z,92.60
2018-09-25T05:20:07.952Z,92.70
2018-09-25T05:22:44.757Z,92.70
2018-09-25T05:25:21.112Z,92.80
2018-09-25T05:27:56.747Z,92.70
2018-09-25T05:30:32.552Z,92.90
2018-09-25T05:33:08.101Z,93.70
2018-09-25T05:35:44.357Z,94.50
2018-09-25T05:38:20.171Z,94.50
2018-09-25T05:40:55.785Z,93.70
2018-09-25T05:43:31.431Z,93.20
2018-09-25T05:46:06.952Z,92.80
2018-09-25T05:48:42.530Z,91.80
2018-09-25T05:51:17.841Z,91.70
2018-09-25T05:53:53.357Z,91.10
2018-09-25T05:56:29.299Z,90.80
2018-09-25T05:59:04.883Z,91.20
2018-09-25T06:01:40.263Z,89.90
2018-09-25T06:04:16.093Z,90.30
2018-09-25T06:06:51.906Z,89.60
2018-09-25T06:09:27.521Z,88.70
2018-09-25T06:12:02.792Z,88.60
2018-09-25T06:14:38.367Z,87.80
2018-09-25T06:17:14.008Z,87.50
2018-09-25T06:19:49.554Z,88.10
2018-09-25T06:22:25.749Z,87.60
2018-09-25T06:25:01.443Z,87.00
2018-09-25T06:27:37.476Z,85.40
2018-09-25T06:30:13.407Z,85.80
2018-09-25T06:32:49.751Z,85.20
2018-09-25T06:35:26.378Z,84.50
2018-09-25T06:38:02.211Z,83.90
2018-09-25T06:40:38.008Z,84.10
2018-09-25T06:43:13.829Z,82.40
2018-09-25T06:45:49.799Z,81.70
2018-09-25T06:48:25.408Z,82.00
2018-09-25T06:51:00.953Z,81.00
2018-09-25T06:53:36.698Z,81.60
2018-09-25T06:56:12.461Z,81.20
2018-09-25T06:58:47.906Z,80.10
2018-09-25T07:01:23.650Z,80.60
2018-09-25T07:03:59.832Z,80.10
2018-09-25T07:06:35.421Z,79.40
2018-09-25T07:09:13.466Z,79.00
2018-09-25T07:11:49.067Z,78.30
2018-09-25T07:14:24.744Z,78.00
2018-09-25T07:17:00.569Z,77.90
2018-09-25T07:19:36.199Z,77.00
2018-09-25T07:22:11.726Z,75.90
2018-09-25T07:24:47.810Z,75.60
2018-09-25T07:27:23.266Z,75.10
2018-09-25T07:29:58.875Z,74.40
2018-09-25T07:32:34.642Z,74.20
2018-09-25T07:35:10.255Z,74.60
2018-09-25T07:37:45.900Z,74.40
2018-09-25T07:40:21.450Z,73.80
2018-09-25T07:42:57.082Z,73.10
2018-09-25T07:45:32.684Z,71.90
2018-09-25T07:48:08.493Z,71.00
2018-09-25T07:50:44.342Z,70.10
2018-09-25T07:53:19.909Z,70.10
2018-09-25T07:55:56.353Z,70.60
2018-09-25T07:58:31.930Z,68.80
2018-09-25T08:01:07.448Z,68.10
2018-09-25T08:03:43.030Z,67.50
2018-09-25T08:06:18.482Z,68.00
2018-09-25T08:08:53.938Z,68.30
2018-09-25T08:11:29.724Z,68.00
2018-09-25T08:14:05.562Z,68.70
2018-09-25T08:16:41.371Z,68.20
2018-09-25T08:19:16.820Z,68.20
2018-09-25T08:21:52.689Z,68.30
2018-09-25T08:24:27.994Z,68.00
2018-09-25T08:27:03.643Z,68.50
2018-09-25T08:29:39.193Z,68.50
2018-09-25T08:32:14.905Z,68.70
2018-09-25T08:34:50.455Z,68.60
2018-09-25T08:37:26.196Z,68.40
2018-09-25T08:40:01.839Z,66.70
2018-09-25T08:42:37.513Z,68.60
2018-09-25T08:45:13.053Z,66.50
2018-09-25T08:47:48.583Z,67.40
2018-09-25T08:50:23.939Z,67.60
2018-09-25T08:52:59.703Z,66.10
2018-09-25T08:55:35.324Z,65.10
2018-09-25T08:58:11.213Z,65.20
2018-09-25T09:00:46.820Z,67.10
2018-09-25T09:03:22.710Z,65.40
2018-09-25T09:05:58.402Z,66.30
2018-09-25T09:08:34.082Z,67.60
2018-09-25T09:11:09.735Z,66.40
2018-09-25T09:13:45.453Z,64.80
2018-09-25T09:16:21.967Z,65.40
2018-09-25T09:18:57.397Z,66.60
2018-09-25T09:21:34.060Z,64.40
2018-09-25T09:24:09.768Z,63.60
2018-09-25T09:26:45.269Z,63.40
2018-09-25T09:29:20.811Z,62.40
2018-09-25T09:31:56.302Z,62.10
2018-09-25T09:34:31.640Z,62.10
2018-09-25T09:37:06.960Z,61.20
2018-09-25T09:39:42.517Z,61.90
2018-09-25T09:42:17.854Z,63.50
2018-09-25T09:44:53.370Z,62.30
2018-09-25T09:47:29.518Z,62.20
2018-09-25T09:50:05.091Z,61.60
2018-09-25T09:52:40.564Z,61.30
2018-09-25T09:55:15.969Z,62.20
2018-09-25T09:57:51.360Z,63.40
2018-09-25T10:00:26.932Z,64.30
2018-09-25T10:03:02.498Z,63.10
2018-09-25T10:05:38.003Z,62.10
2018-09-25T10:08:13.629Z,61.50
2018-09-25T10:10:49.066Z,61.80
2018-09-25T10:13:25.176Z,61.40
2018-09-25T10:16:01.065Z,61.70
2018-09-25T10:18:36.588Z,62.10
2018-09-25T10:21:12.297Z,64.10
2018-09-25T10:23:47.687Z,61.90
2018-09-25T10:26:23.425Z,61.80
2018-09-25T10:28:58.840Z,61.60
2018-09-25T10:31:34.882Z,61.10
2018-09-25T10:34:10.880Z,61.00
2018-09-25T10:36:46.597Z,60.50
2018-09-25T10:39:22.317Z,61.60
2018-09-25T10:41:58.096Z,60.60
2018-09-25T10:44:33.847Z,60.50
2018-09-25T10:47:09.810Z,61.50
2018-09-25T10:49:45.492Z,60.90
2018-09-25T10:52:21.207Z,61.70
2018-09-25T10:54:57.472Z,61.50
2018-09-25T10:57:33.257Z,61.20
2018-09-25T11:00:09.342Z,60.70
2018-09-25T11:02:45.280Z,58.20
2018-09-25T11:05:21.020Z,59.10
2018-09-25T11:07:56.909Z,58.90
2018-09-25T11:10:32.613Z,59.50
2018-09-25T11:13:08.567Z,60.60
2018-09-25T11:15:44.800Z,60.40
2018-09-25T11:18:20.682Z,60.30
2018-09-25T11:20:56.374Z,61.50
2018-09-25T11:23:32.046Z,60.90
2018-09-25T11:26:07.693Z,61.50
2018-09-25T11:28:43.240Z,61.00
2018-09-25T11:31:19.075Z,59.20
2018-09-25T11:33:55.035Z,59.50
2018-09-25T11:36:31.829Z,59.10
2018-09-25T11:39:07.373Z,58.90
2018-09-25T11:41:42.972Z,59.30
2018-09-25T11:44:18.544Z,59.20
2018-09-25T11:46:54.262Z,60.10
2018-09-25T11:49:29.668Z,58.70
2018-09-25T11:52:05.547Z,58.50
2018-09-25T11:54:41.204Z,58.10
2018-09-25T11:57:16.845Z,58.70
2018-09-25T11:59:52.832Z,57.60
2018-09-25T12:02:28.561Z,57.00
2018-09-25T12:05:04.565Z,57.80
2018-09-25T12:07:40.180Z,57.80
2018-09-25T12:10:17.131Z,57.50
2018-09-25T12:12:52.813Z,57.60
2018-09-25T12:15:28.771Z,56.40
2018-09-25T12:18:04.578Z,57.50
2018-09-25T12:20:40.178Z,58.90
2018-09-25T12:23:16.176Z,58.50
2018-09-25T12:25:51.963Z,58.80
2018-09-25T12:28:27.473Z,57.30
2018-09-25T12:31:03.132Z,57.90
2018-09-25T12:33:39.134Z,58.60
2018-09-25T12:36:14.988Z,57.50
2018-09-25T12:38:51.245Z,57.70
2018-09-25T12:41:27.411Z,57.60
2018-09-25T12:44:05.245Z,57.30
2018-09-25T12:46:40.998Z,58.20
2018-09-25T12:49:16.911Z,58.50
2018-09-25T12:51:52.436Z,58.20
2018-09-25T12:54:28.170Z,57.40
2018-09-25T12:57:04.842Z,58.10
2018-09-25T12:59:40.455Z,57.40
2018-09-25T13:02:16.314Z,56.40
2018-09-25T13:04:51.739Z,56.60
2018-09-25T13:07:28.535Z,57.30
2018-09-25T13:10:04.462Z,58.10
2018-09-25T13:12:40.099Z,58.30
2018-09-25T13:15:15.867Z,58.40
2018-09-25T13:17:51.551Z,58.00
2018-09-25T13:20:27.274Z,58.30
2018-09-25T13:23:02.798Z,58.70
2018-09-25T13:25:38.401Z,58.40
2018-09-25T13:28:14.132Z,59.50
2018-09-25T13:30:49.850Z,59.90
2018-09-25T13:33:25.784Z,58.00
2018-09-25T13:36:01.903Z,58.80
2018-09-25T13:38:37.739Z,58.50
2018-09-25T13:41:13.524Z,57.90
2018-09-25T13:43:49.068Z,58.80
2018-09-25T13:46:24.919Z,57.80
2018-09-25T13:49:00.399Z,58.70
2018-09-25T13:51:36.004Z,58.30
2018-09-25T13:54:11.713Z,59.20
2018-09-25T13:56:47.502Z,59.40
2018-09-25T13:59:22.890Z,58.80
2018-09-25T14:01:58.691Z,58.70
2018-09-25T14:04:34.857Z,58.80
2018-09-25T14:07:11.049Z,58.90
2018-09-25T14:09:47.826Z,59.30
2018-09-25T14:12:23.770Z,58.30
2018-09-25T14:15:00.287Z,59.30
2018-09-25T14:17:35.944Z,59.70
2018-09-25T14:20:11.576Z,58.40
2018-09-25T14:22:47.448Z,58.30
2018-09-25T14:25:23.411Z,58.80
2018-09-25T14:27:59.972Z,58.60
2018-09-25T14:30:36.229Z,58.20
2018-09-25T14:33:11.965Z,58.90
2018-09-25T14:35:47.864Z,58.90
2018-09-25T14:38:25.010Z,59.10
2018-09-25T14:41:01.803Z,59.10
2018-09-25T14:43:37.901Z,58.70
2018-09-25T14:46:14.374Z,59.10
2018-09-25T14:48:50.311Z,58.50
2018-09-25T14:51:25.989Z,59.10
2018-09-25T14:54:02.588Z,59.00
2018-09-25T14:56:38.255Z,58.40
2018-09-25T14:59:14.137Z,58.30
2018-09-25T15:01:49.795Z,59.20
2018-09-25T15:04:25.352Z,58.70
2018-09-25T15:07:01.145Z,58.70
2018-09-25T15:09:36.874Z,58.90
2018-09-25T15:12:12.592Z,58.70
2018-09-25T15:14:48.060Z,58.30
2018-09-25T15:17:23.593Z,58.10
2018-09-25T15:19:59.862Z,57.90
2018-09-25T15:22:35.453Z,58.20
2018-09-25T15:25:12.136Z,58.00
2018-09-25T15:27:47.855Z,57.80
2018-09-25T15:30:23.461Z,59.20
2018-09-25T15:32:59.492Z,57.90
2018-09-25T15:35:35.078Z,57.90
2018-09-25T15:38:10.633Z,59.50
2018-09-25T15:40:46.385Z,58.90
2018-09-25T15:43:22.006Z,59.20
2018-09-25T15:45:58.644Z,60.30
2018-09-25T15:48:34.702Z,58.40
2018-09-25T15:51:10.440Z,59.00
2018-09-25T15:53:45.962Z,58.70
2018-09-25T15:56:21.563Z,59.00
2018-09-25T15:58:57.188Z,58.30
2018-09-25T16:01:32.669Z,58.80
2018-09-25T16:04:08.418Z,58.60
2018-09-25T16:06:44.386Z,58.40
2018-09-25T16:09:20.543Z,57.60
2018-09-25T16:11:56.370Z,57.70
2018-09-25T16:14:32.374Z,58.90
2018-09-25T16:17:09.336Z,58.10
2018-09-25T16:19:45.337Z,58.10
2018-09-25T16:22:21.039Z,58.10
2018-09-25T16:24:56.983Z,58.70
2018-09-25T16:27:33.295Z,58.40
2018-09-25T16:30:09.217Z,58.40
2018-09-25T16:32:45.713Z,58.80
2018-09-25T16:35:22.738Z,58.80
2018-09-25T16:37:58.461Z,59.10
2018-09-25T16:40:33.928Z,59.50
2018-09-25T16:43:09.663Z,60.50
2018-09-25T16:45:45.398Z,59.20
2018-09-25T16:48:21.091Z,59.70
2018-09-25T16:50:56.763Z,60.10
2018-09-25T16:53:32.640Z,60.50
2018-09-25T16:56:08.447Z,60.50
2018-09-25T16:58:44.468Z,61.20
2018-09-25T17:01:20.268Z,61.80
2018-09-25T17:03:55.864Z,62.20
2018-09-25T17:06:31.722Z,62.10
2018-09-25T17:09:07.344Z,61.80
2018-09-25T17:11:43.756Z,62.30
2018-09-25T17:14:20.063Z,62.30
2018-09-25T17:16:56.275Z,61.90
2018-09-25T17:19:32.570Z,62.10
2018-09-25T17:22:08.547Z,62.10
2018-09-25T17:24:44.468Z,61.80
2018-09-25T17:27:20.691Z,62.00
2018-09-25T17:29:56.601Z,62.40
2018-09-25T17:32:32.329Z,62.50
2018-09-25T17:35:08.409Z,62.60
2018-09-25T17:37:44.807Z,62.90
2018-09-25T17:40:20.994Z,63.00
2018-09-25T17:42:57.243Z,64.20
2018-09-25T17:45:40.104Z,64.10
2018-09-25T17:48:15.751Z,63.80
2018-09-25T17:50:51.792Z,64.00
2018-09-25T17:53:27.548Z,64.30
2018-09-25T17:56:03.895Z,64.60
2018-09-25T17:58:39.600Z,65.20
2018-09-25T18:01:15.847Z,65.40
2018-09-25T18:03:51.748Z,65.20
2018-09-25T18:06:27.678Z,65.30
2018-09-25T18:09:03.488Z,65.90
2018-09-25T18:11:39.709Z,65.70
2018-09-25T18:14:16.896Z,66.10
2018-09-25T18:16:52.749Z,66.60
2018-09-25T18:19:28.864Z,66.60
2018-09-25T18:22:04.740Z,66.70
2018-09-25T18:24:40.609Z,67.00
2018-09-25T18:27:16.860Z,67.10
2018-09-25T18:29:52.561Z,67.60
2018-09-25T18:32:28.499Z,67.80
2018-09-25T18:35:06.293Z,68.00
2018-09-25T18:37:42.650Z,68.30
2018-09-25T18:40:18.267Z,68.90
2018-09-25T18:42:54.672Z,69.10
2018-09-25T18:45:30.737Z,69.70
2018-09-25T18:48:06.327Z,69.30
2018-09-25T18:50:42.010Z,69.90
2018-09-25T18:53:18.499Z,69.70
2018-09-25T18:55:54.149Z,70.40
2018-09-25T18:58:29.835Z,71.00
2018-09-25T19:01:05.946Z,71.60
2018-09-25T19:03:41.993Z,70.90
2018-09-25T19:06:17.932Z,71.50
2018-09-25T19:08:53.784Z,71.50
2018-09-25T19:11:29.558Z,71.60
2018-09-25T19:14:05.425Z,71.70
2018-09-25T19:16:41.212Z,71.40
2018-09-25T19:19:17.140Z,72.30
2018-09-25T19:21:53.557Z,72.00
2018-09-25T19:24:29.606Z,72.30
2018-09-25T19:27:05.979Z,72.40
2018-09-25T19:29:42.122Z,73.00
2018-09-25T19:32:18.580Z,73.00
2018-09-25T19:34:54.404Z,73.40
2018-09-25T19:37:30.417Z,73.80
2018-09-25T19:40:06.208Z,73.70
2018-09-25T19:42:42.108Z,73.70
2018-09-25T19:45:18.498Z,74.40
2018-09-25T19:47:54.306Z,74.60
2018-09-25T19:50:30.187Z,74.50
2018-09-25T19:53:06.038Z,75.10
2018-09-25T19:55:44.064Z,75.10
2018-09-25T19:58:20.106Z,75.50
2018-09-25T20:00:55.923Z,76.00
2018-09-25T20:03:32.119Z,75.90
2018-09-25T20:06:07.822Z,75.90
2018-09-25T20:08:43.728Z,76.30
2018-09-25T20:11:20.714Z,75.80
2018-09-25T20:13:57.850Z,76.20
2018-09-25T20:16:34.202Z,76.30
2018-09-25T20:19:10.139Z,77.10
2018-09-25T20:21:45.876Z,77.20
2018-09-25T20:24:21.670Z,78.00
2018-09-25T20:26:57.545Z,77.80
2018-09-25T20:29:33.977Z,78.20
2018-09-25T20:32:10.323Z,78.10
2018-09-25T20:34:46.544Z,78.70
2018-09-25T20:37:24.131Z,80.10
2018-09-25T20:40:00.360Z,80.20
2018-09-25T20:42:36.842Z,80.90
2018-09-25T20:45:13.106Z,80.80
2018-09-25T20:47:50.536Z,80.80
2018-09-25T20:50:29.407Z,80.30
2018-09-25T20:53:07.282Z,80.10
2018-09-25T20:55:43.151Z,79.30
2018-09-25T20:58:19.047Z,79.00
2018-09-25T21:00:54.594Z,79.10
2018-09-25T21:03:30.942Z,79.20
2018-09-25T21:06:07.543Z,78.90
2018-09-25T21:08:43.617Z,79.20
2018-09-25T21:11:19.623Z,79.10
2018-09-25T21:13:55.979Z,79.40
2018-09-25T21:16:31.726Z,79.00
2018-09-25T21:19:07.318Z,78.40
2018-09-25T21:21:42.895Z,78.40
2018-09-25T21:24:19.055Z,78.60
2018-09-25T21:26:55.527Z,77.70
2018-09-25T21:29:31.050Z,77.80
2018-09-25T21:32:06.716Z,77.80
2018-09-25T21:34:42.273Z,77.80
2018-09-25T21:37:18.054Z,77.90
2018-09-25T21:39:54.098Z,78.10
2018-09-25T21:42:29.671Z,78.50
2018-09-25T21:45:05.509Z,78.80
2018-09-25T21:47:40.979Z,78.10
2018-09-25T21:50:16.648Z,78.40
2018-09-25T21:52:52.083Z,79.10
2018-09-25T21:55:27.739Z,79.00
2018-09-25T21:58:03.489Z,79.20
2018-09-25T22:00:39.329Z,79.20
2018-09-25T22:03:14.957Z,79.90
2018-09-25T22:05:50.527Z,79.40
2018-09-25T22:08:26.283Z,79.10
2018-09-25T22:11:01.784Z,79.60
2018-09-25T22:13:37.274Z,79.80
2018-09-25T22:16:12.879Z,79.40
2018-09-25T22:18:48.368Z,79.40
2018-09-25T22:21:24.174Z,79.30
2018-09-25T22:24:00.364Z,79.20
2018-09-25T22:26:35.903Z,79.30
2018-09-25T22:29:11.336Z,79.10
2018-09-25T22:31:46.758Z,79.00
2018-09-25T22:34:22.410Z,79.00
2018-09-25T22:36:58.582Z,79.60
2018-09-25T22:39:34.217Z,79.60
2018-09-25T22:42:09.907Z,79.90
2018-09-25T22:44:45.460Z,79.70
2018-09-25T22:47:21.437Z,79.80
2018-09-25T22:49:57.231Z,79.40
2018-09-25T22:52:32.637Z,79.90
2018-09-25T22:55:08.070Z,80.50
2018-09-25T22:57:43.772Z,80.70
2018-09-25T23:00:20.179Z,80.10
2018-09-25T23:02:55.744Z,80.30
2018-09-25T23:05:31.317Z,80.60
2018-09-25T23:08:07.000Z,81.00
2018-09-25T23:10:42.684Z,81.00
2018-09-25T23:13:18.203Z,81.90
2018-09-25T23:15:53.656Z,81.40
2018-09-25T23:18:29.171Z,80.70
2018-09-25T23:21:04.808Z,81.10
2018-09-25T23:23:40.304Z,82.20
2018-09-25T23:26:15.900Z,81.80
2018-09-25T23:28:51.650Z,82.40
2018-09-25T23:31:27.009Z,81.90
2018-09-25T23:34:02.677Z,81.60
2018-09-25T23:36:38.307Z,81.70
2018-09-25T23:39:15.440Z,81.20
2018-09-25T23:42:21.070Z,80.50
2018-09-25T23:45:08.568Z,81.10
2018-09-25T23:47:46.493Z,81.20
2018-09-25T23:50:21.947Z,80.40
2018-09-25T23:53:05.462Z,80.70
2018-09-25T23:55:39.927Z,80.60
2018-09-25T23:58:21.368Z,80.20
